createdAt,value
2023-04-10T00:00:14.183Z,82.0129
2023-04-10T00:01:17.151Z,82.3345
2023-04-10T00:02:20.189Z,82.6058
2023-04-10T00:03:23.088Z,82.7070
2023-04-10T00:04:26.076Z,82.7029
2023-04-10T00:05:29.022Z,82.8822
2023-04-10T00:06:31.899Z,83.2124
2023-04-10T00:07:34.833Z,83.1465
2023-04-10T00:08:37.801Z,83.4823
2023-04-10T00:09:40.736Z,83.3565
2023-04-10T00:10:43.685Z,82.9640
2023-04-10T00:11:46.627Z,82.6399
2023-04-10T00:12:49.612Z,82.8083
2023-04-10T00:13:52.917Z,82.6474
2023-04-10T00:14:55.492Z,82.4412
2023-04-10T00:15:58.432Z,82.4353
2023-04-10T00:17:01.584Z,82.9776
2023-04-10T00:18:04.412Z,83.2134
2023-04-10T00:19:07.322Z,83.1712
2023-04-10T00:20:10.234Z,82.6938
2023-04-10T00:21:13.210Z,82.0972
2023-04-10T00:22:16.143Z,82.2337
2023-04-10T00:23:19.114Z,82.4741
2023-04-10T00:24:22.087Z,82.7121
2023-04-10T00:25:24.987Z,82.8490
2023-04-10T00:26:28.037Z,82.9703
2023-04-10T00:27:30.895Z,82.9121
2023-04-10T00:28:33.864Z,83.0729
2023-04-10T00:29:36.810Z,83.5322
2023-04-10T00:30:39.748Z,83.4281
2023-04-10T00:31:42.757Z,83.1012
2023-04-10T00:32:45.773Z,83.2770
2023-04-10T00:33:48.621Z,82.7842
2023-04-10T00:34:51.563Z,83.3417
2023-04-10T00:35:54.555Z,83.0796
2023-04-10T00:36:57.502Z,82.8450
2023-04-10T00:38:00.425Z,82.6503
2023-04-10T00:39:03.386Z,82.5938
2023-04-10T00:40:06.326Z,82.6737
2023-04-10T00:41:09.269Z,82.3886
2023-04-10T00:42:12.259Z,82.4949
2023-04-10T00:43:15.220Z,82.5282
2023-04-10T00:44:18.129Z,82.8902
2023-04-10T00:45:21.078Z,83.4103
2023-04-10T00:46:24.072Z,83.6321
2023-04-10T00:47:27.011Z,83.5876
2023-04-10T00:48:29.957Z,83.8108
2023-04-10T00:49:32.884Z,83.5481
2023-04-10T00:50:35.847Z,82.8546
2023-04-10T00:51:38.804Z,82.7856
2023-04-10T00:52:41.874Z,82.8270
2023-04-10T00:53:44.721Z,82.6521
2023-04-10T00:54:47.666Z,82.6258
2023-04-10T00:55:50.622Z,82.6964
2023-04-10T00:56:53.819Z,82.8075
2023-04-10T00:57:56.630Z,83.3023
2023-04-10T00:58:59.498Z,83.2965
2023-04-10T01:00:02.429Z,83.1468
2023-04-10T01:01:05.506Z,82.7720
2023-04-10T01:02:08.433Z,82.4142
2023-04-10T01:03:11.435Z,82.4943
2023-04-10T01:04:14.368Z,82.4592
2023-04-10T01:05:17.204Z,82.5507
2023-04-10T01:06:20.163Z,82.4939
2023-04-10T01:07:23.178Z,82.4636
2023-04-10T01:08:26.071Z,82.6392
2023-04-10T01:09:29.062Z,83.1316
2023-04-10T01:10:31.996Z,83.1990
2023-04-10T01:11:34.962Z,83.3012
2023-04-10T01:12:37.887Z,83.7035
2023-04-10T01:13:40.854Z,83.8591
2023-04-10T01:14:43.824Z,83.9446
2023-04-10T01:15:46.761Z,84.1299
2023-04-10T01:16:49.865Z,84.4677
2023-04-10T01:17:52.716Z,84.4995
2023-04-10T01:18:55.642Z,84.2287
2023-04-10T01:19:58.637Z,83.8682
2023-04-10T01:21:01.537Z,84.1466
2023-04-10T01:22:04.510Z,84.3851
2023-04-10T01:23:07.459Z,84.5880
2023-04-10T01:24:10.455Z,84.7325
2023-04-10T01:25:13.408Z,84.6662
2023-04-10T01:26:16.349Z,84.7065
2023-04-10T01:27:19.392Z,84.9667
2023-04-10T01:28:22.250Z,85.0382
2023-04-10T01:29:25.230Z,85.3887
2023-04-10T01:30:28.148Z,86.0344
2023-04-10T01:31:31.093Z,85.7194
2023-04-10T01:32:34.084Z,85.0734
2023-04-10T01:33:36.998Z,84.9822
2023-04-10T01:34:40.156Z,85.3692
2023-04-10T01:35:42.929Z,85.4243
2023-04-10T01:36:45.895Z,85.5786
2023-04-10T01:37:48.831Z,85.6002
2023-04-10T01:38:51.858Z,85.6873
2023-04-10T01:39:54.738Z,85.6087
2023-04-10T01:40:57.701Z,85.3977
2023-04-10T01:42:00.670Z,85.3127
2023-04-10T01:43:03.609Z,85.8594
2023-04-10T01:44:06.563Z,85.6996
2023-04-10T01:45:09.515Z,85.2634
2023-04-10T01:46:12.483Z,85.3902
2023-04-10T01:47:15.562Z,85.3976
2023-04-10T01:48:18.375Z,85.1225
2023-04-10T01:49:21.320Z,84.4500
2023-04-10T01:50:24.290Z,84.4499
2023-04-10T01:51:27.220Z,84.4322
2023-04-10T01:52:30.224Z,84.0890
2023-04-10T01:53:33.131Z,83.7875
2023-04-10T01:54:36.076Z,84.4608
2023-04-10T01:55:39.039Z,84.4918
2023-04-10T01:56:41.987Z,84.1384
2023-04-10T01:57:44.990Z,83.7454
2023-04-10T01:58:47.902Z,83.8436
2023-04-10T01:59:50.876Z,84.5156
2023-04-10T02:00:53.902Z,84.9565
2023-04-10T02:01:56.810Z,84.7649
2023-04-10T02:02:59.897Z,84.5653
2023-04-10T02:04:02.762Z,84.2864
2023-04-10T02:05:05.755Z,83.9966
2023-04-10T02:06:08.582Z,83.8579
2023-04-10T02:07:11.571Z,84.3487
2023-04-10T02:08:14.516Z,84.9366
2023-04-10T02:09:17.436Z,83.8866
2023-04-10T02:10:20.393Z,83.9114
2023-04-10T02:11:23.364Z,83.6885
2023-04-10T02:12:26.304Z,83.5325
2023-04-10T02:13:29.255Z,83.6025
2023-04-10T02:14:32.199Z,83.4347
2023-04-10T02:15:35.260Z,83.2435
2023-04-10T02:16:38.208Z,83.1558
2023-04-10T02:17:41.072Z,83.3558
2023-04-10T02:18:44.000Z,83.0983
2023-04-10T02:19:46.967Z,82.8519
2023-04-10T02:20:49.966Z,82.7572
2023-04-10T02:21:53.002Z,82.6654
2023-04-10T02:22:55.813Z,82.8008
2023-04-10T02:23:58.795Z,82.8419
2023-04-10T02:25:01.744Z,82.7706
2023-04-10T02:26:04.680Z,82.5873
2023-04-10T02:27:07.637Z,82.8151
2023-04-10T02:28:10.642Z,82.8976
2023-04-10T02:29:13.532Z,83.0550
2023-04-10T02:30:16.567Z,82.6780
2023-04-10T02:31:19.448Z,82.6159
2023-04-10T02:32:22.413Z,82.2369
2023-04-10T02:33:25.344Z,82.7285
2023-04-10T02:34:28.291Z,82.6264
2023-04-10T02:35:31.337Z,82.7381
2023-04-10T02:36:34.229Z,83.3887
2023-04-10T02:37:37.233Z,83.1559
2023-04-10T02:38:40.102Z,83.1894
2023-04-10T02:39:43.063Z,82.9148
2023-04-10T02:40:46.016Z,82.8023
2023-04-10T02:41:48.997Z,82.5123
2023-04-10T02:42:51.977Z,82.7255
2023-04-10T02:43:54.926Z,82.9331
2023-04-10T02:44:57.822Z,83.2717
2023-04-10T02:46:00.785Z,83.6150
2023-04-10T02:47:03.750Z,83.6071
2023-04-10T02:48:06.872Z,83.5669
2023-04-10T02:49:09.693Z,83.8203
2023-04-10T02:50:12.599Z,83.6969
2023-04-10T02:51:15.569Z,83.7348
2023-04-10T02:52:18.488Z,84.0940
2023-04-10T02:53:21.451Z,84.5294
2023-04-10T02:54:24.525Z,84.6122
2023-04-10T02:55:27.391Z,84.6729
2023-04-10T02:56:30.304Z,84.6518
2023-04-10T02:57:33.259Z,84.9057
2023-04-10T02:58:36.212Z,85.0649
2023-04-10T02:59:39.212Z,85.1797
2023-04-10T03:00:42.138Z,85.5192
2023-04-10T03:01:45.255Z,85.5890
2023-04-10T03:02:48.220Z,85.6977
2023-04-10T03:03:51.067Z,85.5640
2023-04-10T03:04:54.040Z,85.7352
2023-04-10T03:05:56.920Z,85.7340
2023-04-10T03:06:59.833Z,85.7542
2023-04-10T03:08:02.806Z,85.4004
2023-04-10T03:09:05.734Z,85.6590
2023-04-10T03:10:08.710Z,85.7085
2023-04-10T03:11:11.645Z,85.7711
2023-04-10T03:12:14.622Z,85.7231
2023-04-10T03:13:17.546Z,85.6491
2023-04-10T03:14:20.499Z,85.5517
2023-04-10T03:15:23.447Z,85.6514
2023-04-10T03:16:26.532Z,85.8366
2023-04-10T03:17:29.420Z,85.9698
2023-04-10T03:18:32.321Z,86.1306
2023-04-10T03:19:35.280Z,86.3749
2023-04-10T03:20:38.236Z,86.5788
2023-04-10T03:21:41.204Z,86.6641
2023-04-10T03:22:44.135Z,87.3399
2023-04-10T03:23:47.086Z,87.7479
2023-04-10T03:24:50.038Z,87.2863
2023-04-10T03:25:52.989Z,87.2187
2023-04-10T03:26:55.951Z,86.9015
2023-04-10T03:27:58.995Z,86.7997
2023-04-10T03:29:01.994Z,86.6053
2023-04-10T03:30:04.870Z,86.2537
2023-04-10T03:31:07.845Z,86.3035
2023-04-10T03:32:10.794Z,86.4810
2023-04-10T03:33:13.785Z,86.5419
2023-04-10T03:34:16.777Z,86.5104
2023-04-10T03:35:19.744Z,86.2366
2023-04-10T03:36:22.623Z,86.1605
2023-04-10T03:37:25.558Z,86.2243
2023-04-10T03:38:28.507Z,86.2374
2023-04-10T03:39:31.502Z,86.2351
2023-04-10T03:40:34.429Z,86.2387
2023-04-10T03:41:37.366Z,86.8716
2023-04-10T03:42:40.324Z,86.7415
2023-04-10T03:43:43.275Z,86.2249
2023-04-10T03:44:46.225Z,85.8336
2023-04-10T03:45:49.173Z,85.6441
2023-04-10T03:46:52.239Z,85.6413
2023-04-10T03:47:55.106Z,85.7296
2023-04-10T03:48:58.032Z,85.6664
2023-04-10T03:50:00.993Z,85.9086
2023-04-10T03:51:03.967Z,86.3108
2023-04-10T03:52:06.886Z,85.8437
2023-04-10T03:53:09.866Z,84.9177
2023-04-10T03:54:13.041Z,84.3946
2023-04-10T03:55:15.731Z,84.2850
2023-04-10T03:56:18.728Z,84.5534
2023-04-10T03:57:21.665Z,84.4749
2023-04-10T03:58:24.619Z,84.7017
2023-04-10T03:59:37.966Z,84.7135
2023-04-10T04:00:30.501Z,84.7769
2023-04-10T04:01:33.550Z,84.4924
2023-04-10T04:02:36.475Z,84.8020
2023-04-10T04:03:39.471Z,85.1871
2023-04-10T04:04:42.496Z,85.3533
2023-04-10T04:05:45.286Z,85.3659
2023-04-10T04:06:48.221Z,85.2975
2023-04-10T04:07:51.164Z,85.4205
2023-04-10T04:08:54.118Z,85.2904
2023-04-10T04:09:57.103Z,85.2992
2023-04-10T04:11:00.033Z,85.2935
2023-04-10T04:12:02.987Z,85.3951
2023-04-10T04:13:05.948Z,85.6343
2023-04-10T04:14:08.941Z,86.0526
2023-04-10T04:15:11.860Z,85.4226
2023-04-10T04:16:14.824Z,85.0422
2023-04-10T04:17:17.781Z,84.7214
2023-04-10T04:18:20.717Z,85.2432
2023-04-10T04:19:23.683Z,85.6124
2023-04-10T04:20:26.670Z,85.1600
2023-04-10T04:21:29.596Z,84.7676
2023-04-10T04:22:32.529Z,85.1342
2023-04-10T04:23:35.517Z,85.0886
2023-04-10T04:24:38.470Z,84.2152
2023-04-10T04:25:41.409Z,84.7114
2023-04-10T04:26:44.367Z,85.2619
2023-04-10T04:27:47.318Z,85.3773
2023-04-10T04:28:50.301Z,85.3195
2023-04-10T04:29:53.224Z,85.1125
2023-04-10T04:30:56.189Z,85.0223
2023-04-10T04:31:59.199Z,85.0536
2023-04-10T04:33:02.162Z,85.0791
2023-04-10T04:34:05.062Z,84.9742
2023-04-10T04:35:08.000Z,84.5599
2023-04-10T04:36:10.984Z,84.8479
2023-04-10T04:37:13.893Z,84.9128
2023-04-10T04:38:16.897Z,84.7573
2023-04-10T04:39:19.808Z,84.5076
2023-04-10T04:40:22.763Z,84.4006
2023-04-10T04:41:25.721Z,84.5683
2023-04-10T04:42:28.671Z,84.4343
2023-04-10T04:43:31.719Z,83.7375
2023-04-10T04:44:34.597Z,83.7786
2023-04-10T04:45:37.553Z,83.8346
2023-04-10T04:46:41.954Z,84.1847
2023-04-10T04:47:43.472Z,84.7841
2023-04-10T04:48:46.424Z,84.4583
2023-04-10T04:49:49.396Z,83.9425
2023-04-10T04:50:52.568Z,84.0044
2023-04-10T04:51:55.275Z,84.2521
2023-04-10T04:52:58.245Z,84.1301
2023-04-10T04:54:01.178Z,84.1077
2023-04-10T04:55:04.157Z,84.0500
2023-04-10T04:56:07.146Z,84.3487
2023-04-10T04:57:10.079Z,84.3394
2023-04-10T04:58:13.011Z,84.1049
2023-04-10T04:59:15.974Z,84.2840
2023-04-10T05:00:18.919Z,84.6419
2023-04-10T05:01:21.919Z,85.1078
2023-04-10T05:02:24.978Z,85.0210
2023-04-10T05:03:28.014Z,84.9593
2023-04-10T05:04:30.798Z,84.7299
2023-04-10T05:05:33.703Z,84.8869
2023-04-10T05:06:36.770Z,85.2506
2023-04-10T05:07:39.668Z,85.2862
2023-04-10T05:08:42.545Z,85.4411
2023-04-10T05:09:45.511Z,85.5174
2023-04-10T05:10:48.464Z,85.6089
2023-04-10T05:11:51.417Z,85.7056
2023-04-10T05:12:54.493Z,85.9064
2023-04-10T05:13:57.325Z,86.3324
2023-04-10T05:15:04.246Z,86.2676
2023-04-10T05:16:04.834Z,86.1556
2023-04-10T05:17:06.177Z,86.1887
2023-04-10T05:18:09.233Z,86.2583
2023-04-10T05:19:12.092Z,86.1269
2023-04-10T05:20:15.081Z,86.1319
2023-04-10T05:21:18.001Z,86.3910
2023-04-10T05:22:20.979Z,86.2532
2023-04-10T05:23:24.039Z,86.3668
2023-04-10T05:24:26.866Z,86.6161
2023-04-10T05:25:29.817Z,86.3461
2023-04-10T05:26:32.817Z,86.4505
2023-04-10T05:27:35.750Z,86.3976
2023-04-10T05:28:38.743Z,86.1904
2023-04-10T05:29:41.670Z,85.9238
2023-04-10T05:30:44.658Z,85.7719
2023-04-10T05:31:47.562Z,86.0968
2023-04-10T05:32:50.551Z,86.2703
2023-04-10T05:33:53.471Z,86.2791
2023-04-10T05:34:56.446Z,86.1428
2023-04-10T05:35:59.455Z,85.7799
2023-04-10T05:37:02.340Z,85.4957
2023-04-10T05:38:05.309Z,85.8299
2023-04-10T05:39:08.257Z,85.8556
2023-04-10T05:40:11.237Z,85.7137
2023-04-10T05:41:14.316Z,85.4283
2023-04-10T05:42:17.346Z,85.7670
2023-04-10T05:43:20.080Z,85.5455
2023-04-10T05:44:23.019Z,85.0966
2023-04-10T05:45:25.983Z,85.2828
2023-04-10T05:46:29.038Z,85.2762
2023-04-10T05:47:31.928Z,85.0071
2023-04-10T05:48:35.028Z,85.0344
2023-04-10T05:49:37.849Z,84.8267
2023-04-10T05:50:40.758Z,84.4161
2023-04-10T05:51:43.765Z,84.2397
2023-04-10T05:52:46.831Z,84.2156
2023-04-10T05:53:49.632Z,84.2157
2023-04-10T05:54:52.596Z,84.1311
2023-04-10T05:55:55.542Z,84.0584
2023-04-10T05:56:58.496Z,84.3222
2023-04-10T05:58:01.502Z,84.2582
2023-04-10T05:59:04.420Z,84.2283
2023-04-10T06:00:07.385Z,83.9764
2023-04-10T06:01:10.356Z,84.0429
2023-04-10T06:02:13.413Z,83.5031
2023-04-10T06:03:16.360Z,83.6983
2023-04-10T06:04:19.368Z,84.0193
2023-04-10T06:05:22.270Z,83.7831
2023-04-10T06:06:25.099Z,83.6346
2023-04-10T06:07:28.073Z,84.0310
2023-04-10T06:08:31.043Z,83.8018
2023-04-10T06:09:33.970Z,83.9286
2023-04-10T06:10:36.929Z,83.7441
2023-04-10T06:11:39.864Z,83.8584
2023-04-10T06:12:42.823Z,83.6585
2023-04-10T06:13:45.806Z,83.7881
2023-04-10T06:14:48.737Z,83.7036
2023-04-10T06:15:51.713Z,83.6178
2023-04-10T06:16:54.659Z,83.4313
2023-04-10T06:17:57.667Z,83.1837
2023-04-10T06:19:00.556Z,83.0693
2023-04-10T06:20:03.497Z,82.6770
2023-04-10T06:21:06.474Z,82.5321
2023-04-10T06:22:09.490Z,82.3403
2023-04-10T06:23:12.356Z,81.8425
2023-04-10T06:24:15.312Z,81.3039
2023-04-10T06:25:18.296Z,81.3441
2023-04-10T06:26:21.226Z,81.2972
2023-04-10T06:27:24.191Z,81.0729
2023-04-10T06:28:27.124Z,80.9608
2023-04-10T06:29:30.135Z,81.0756
2023-04-10T06:30:33.048Z,80.8664
2023-04-10T06:31:36.085Z,80.6289
2023-04-10T06:32:38.971Z,80.4595
2023-04-10T06:33:41.896Z,80.8821
2023-04-10T06:34:44.857Z,80.9483
2023-04-10T06:35:47.833Z,80.9152
2023-04-10T06:36:50.752Z,81.1194
2023-04-10T06:37:53.728Z,81.3417
2023-04-10T06:38:56.709Z,81.3342
2023-04-10T06:39:59.635Z,80.8920
2023-04-10T06:41:02.587Z,81.8172
2023-04-10T06:42:05.650Z,81.5948
2023-04-10T06:43:08.794Z,81.4454
2023-04-10T06:44:11.522Z,81.4324
2023-04-10T06:45:14.403Z,80.8451
2023-04-10T06:46:17.353Z,80.4715
2023-04-10T06:47:20.307Z,80.6276
2023-04-10T06:48:23.288Z,80.6896
2023-04-10T06:49:26.250Z,80.4098
2023-04-10T06:50:29.883Z,79.9673
2023-04-10T06:51:32.075Z,79.8059
2023-04-10T06:52:35.032Z,80.0566
2023-04-10T06:53:37.994Z,80.5919
2023-04-10T06:54:40.931Z,81.6089
2023-04-10T06:55:43.914Z,80.8321
2023-04-10T06:56:46.860Z,80.3518
2023-04-10T06:57:49.816Z,80.2085
2023-04-10T06:58:52.874Z,80.2446
2023-04-10T06:59:55.716Z,79.8756
2023-04-10T07:00:58.747Z,79.7534
2023-04-10T07:02:01.656Z,79.8033
2023-04-10T07:03:04.682Z,80.0587
2023-04-10T07:04:07.647Z,80.2701
2023-04-10T07:05:10.517Z,80.0783
2023-04-10T07:06:13.477Z,79.2225
2023-04-10T07:07:16.366Z,79.3528
2023-04-10T07:08:19.398Z,80.4676
2023-04-10T07:09:22.288Z,79.5639
2023-04-10T07:10:25.291Z,78.9058
2023-04-10T07:11:28.175Z,78.4999
2023-04-10T07:12:31.172Z,77.8222
2023-04-10T07:13:34.181Z,76.3537
2023-04-10T07:14:37.044Z,75.1401
2023-04-10T07:15:39.980Z,75.1117
2023-04-10T07:16:42.969Z,74.8556
2023-04-10T07:17:45.961Z,74.5509
2023-04-10T07:18:48.817Z,73.9297
2023-04-10T07:19:51.758Z,73.5612
2023-04-10T07:20:54.711Z,72.0582
2023-04-10T07:21:57.670Z,72.3598
2023-04-10T07:23:00.793Z,71.9835
2023-04-10T07:24:03.554Z,68.9883
2023-04-10T07:25:06.517Z,69.3997
2023-04-10T07:26:09.497Z,69.6983
2023-04-10T07:27:12.410Z,70.7617
2023-04-10T07:28:15.357Z,71.0492
2023-04-10T07:29:18.300Z,69.0013
2023-04-10T07:30:21.238Z,69.8880
2023-04-10T07:31:24.289Z,68.8948
2023-04-10T07:32:27.343Z,67.9910
2023-04-10T07:33:30.087Z,64.2337
2023-04-10T07:34:33.009Z,62.3243
2023-04-10T07:35:36.089Z,62.0709
2023-04-10T07:36:38.975Z,60.4607
2023-04-10T07:37:41.925Z,59.2065
2023-04-10T07:38:44.880Z,59.6155
2023-04-10T07:39:47.832Z,59.4400
2023-04-10T07:40:50.819Z,60.4504
2023-04-10T07:41:53.713Z,59.2484
2023-04-10T07:42:56.646Z,58.6351
2023-04-10T07:43:59.785Z,55.5059
2023-04-10T07:45:02.551Z,54.5424
2023-04-10T07:46:05.519Z,53.6581
2023-04-10T07:47:08.431Z,53.0549
2023-04-10T07:48:11.380Z,54.6532
2023-04-10T07:49:14.567Z,53.4272
2023-04-10T07:50:17.294Z,51.9578
2023-04-10T07:51:20.218Z,52.8074
2023-04-10T07:52:23.198Z,54.1306
2023-04-10T07:53:26.119Z,51.9477
2023-04-10T07:54:29.073Z,56.0188
2023-04-10T07:55:32.004Z,54.6468
2023-04-10T07:56:35.014Z,52.7412
2023-04-10T07:57:37.937Z,53.5864
2023-04-10T07:58:40.856Z,51.5194
2023-04-10T07:59:43.807Z,51.0993
2023-04-10T08:00:46.797Z,49.6202
2023-04-10T08:01:49.823Z,49.2061
2023-04-10T08:02:52.789Z,49.4568
2023-04-10T08:03:55.751Z,51.2609
2023-04-10T08:04:58.766Z,48.5536
2023-04-10T08:06:01.508Z,48.1199
2023-04-10T08:07:04.505Z,48.8917
2023-04-10T08:08:07.389Z,48.4046
2023-04-10T08:09:10.392Z,48.0521
2023-04-10T08:10:13.298Z,48.5513
2023-04-10T08:11:16.252Z,49.0708
2023-04-10T08:12:19.186Z,48.3482
2023-04-10T08:13:22.130Z,49.3242
2023-04-10T08:14:25.091Z,47.4550
2023-04-10T08:15:28.015Z,47.1761
2023-04-10T08:16:31.030Z,48.1137
2023-04-10T08:17:33.936Z,50.7455
2023-04-10T08:18:36.875Z,49.8957
2023-04-10T08:19:39.816Z,48.1765
2023-04-10T08:20:42.767Z,47.2261
2023-04-10T08:21:45.732Z,48.4328
2023-04-10T08:22:48.672Z,47.3831
2023-04-10T08:23:51.627Z,46.7520
2023-04-10T08:24:54.564Z,45.3321
2023-04-10T08:25:57.623Z,44.6896
2023-04-10T08:27:00.461Z,45.4867
2023-04-10T08:28:03.514Z,45.1944
2023-04-10T08:29:06.392Z,44.8150
2023-04-10T08:30:09.329Z,44.2259
2023-04-10T08:31:12.376Z,44.5669
2023-04-10T08:32:15.238Z,44.2803
2023-04-10T08:33:18.188Z,44.7429
2023-04-10T08:34:21.129Z,44.8485
2023-04-10T08:35:24.141Z,44.6724
2023-04-10T08:36:27.119Z,46.0912
2023-04-10T08:37:29.973Z,46.7021
2023-04-10T08:38:32.920Z,47.1058
2023-04-10T08:39:35.854Z,46.2546
2023-04-10T08:40:38.842Z,45.7454
2023-04-10T08:41:41.750Z,44.9194
2023-04-10T08:42:44.700Z,45.6944
2023-04-10T08:43:47.643Z,45.9643
2023-04-10T08:44:50.597Z,47.2641
2023-04-10T08:45:53.576Z,45.6850
2023-04-10T08:46:56.545Z,46.2465
2023-04-10T08:47:59.449Z,45.0087
2023-04-10T08:49:02.475Z,48.6901
2023-04-10T08:50:05.318Z,45.1180
2023-04-10T08:51:10.790Z,46.2821
2023-04-10T08:52:11.214Z,45.3893
2023-04-10T08:53:14.184Z,46.8241
2023-04-10T08:54:17.150Z,47.6258
2023-04-10T08:55:20.111Z,45.8618
2023-04-10T08:56:23.011Z,44.9598
2023-04-10T08:57:25.957Z,43.4860
2023-04-10T08:58:28.895Z,43.9651
2023-04-10T08:59:31.853Z,45.0746
2023-04-10T09:00:35.100Z,45.4927
2023-04-10T09:01:37.851Z,44.2413
2023-04-10T09:02:42.571Z,46.4431
2023-04-10T09:03:43.827Z,48.8217
2023-04-10T09:04:46.726Z,44.9582
2023-04-10T09:05:49.596Z,45.6343
2023-04-10T09:06:52.574Z,43.0249
2023-04-10T09:07:55.491Z,45.8071
2023-04-10T09:08:58.584Z,44.3461
2023-04-10T09:10:01.453Z,45.4444
2023-04-10T09:11:04.331Z,44.9585
2023-04-10T09:12:07.300Z,45.2175
2023-04-10T09:13:10.440Z,45.3898
2023-04-10T09:14:13.191Z,46.2745
2023-04-10T09:15:16.202Z,47.4130
2023-04-10T09:16:19.157Z,47.9111
2023-04-10T09:17:22.101Z,48.2848
2023-04-10T09:18:25.036Z,48.1292
2023-04-10T09:19:27.966Z,50.8458
2023-04-10T09:20:30.945Z,48.3096
2023-04-10T09:21:33.886Z,49.1494
2023-04-10T09:22:36.862Z,47.4843
2023-04-10T09:23:39.843Z,47.3565
2023-04-10T09:24:42.746Z,46.7518
2023-04-10T09:25:45.692Z,46.2189
2023-04-10T09:26:48.717Z,45.2638
2023-04-10T09:27:51.615Z,43.6988
2023-04-10T09:28:54.626Z,42.4083
2023-04-10T09:29:57.502Z,42.6561
2023-04-10T09:31:00.512Z,43.4982
2023-04-10T09:32:03.394Z,44.9843
2023-04-10T09:33:06.631Z,44.4454
2023-04-10T09:34:09.324Z,43.9815
2023-04-10T09:35:12.265Z,45.7903
2023-04-10T09:36:15.239Z,44.6934
2023-04-10T09:37:18.176Z,45.4003
2023-04-10T09:38:21.130Z,45.1161
2023-04-10T09:39:24.166Z,47.5410
2023-04-10T09:40:27.053Z,46.3582
2023-04-10T09:41:29.976Z,44.1017
2023-04-10T09:42:32.923Z,43.4699
2023-04-10T09:43:35.937Z,42.1135
2023-04-10T09:44:38.861Z,43.4940
2023-04-10T09:45:41.802Z,43.6592
2023-04-10T09:46:44.800Z,43.6747
2023-04-10T09:47:47.747Z,43.1975
2023-04-10T09:48:50.667Z,46.4958
2023-04-10T09:49:53.654Z,43.8117
2023-04-10T09:50:56.573Z,42.0843
2023-04-10T09:51:59.518Z,42.9912
2023-04-10T09:53:02.577Z,41.8871
2023-04-10T09:54:05.445Z,42.0046
2023-04-10T09:55:08.394Z,44.1651
2023-04-10T09:56:11.420Z,40.6903
2023-04-10T09:57:14.284Z,40.2044
2023-04-10T09:58:17.240Z,39.7780
2023-04-10T09:59:20.197Z,39.3240
2023-04-10T10:00:23.220Z,40.2090
2023-04-10T10:01:26.077Z,40.5582
2023-04-10T10:02:29.179Z,40.2513
2023-04-10T10:03:32.061Z,39.3814
2023-04-10T10:04:34.963Z,39.9411
2023-04-10T10:05:37.879Z,39.0454
2023-04-10T10:06:40.868Z,39.2590
2023-04-10T10:07:43.866Z,39.1592
2023-04-10T10:08:46.948Z,39.2778
2023-04-10T10:09:49.666Z,39.2473
2023-04-10T10:10:52.610Z,40.4785
2023-04-10T10:11:55.562Z,40.8321
2023-04-10T10:12:58.528Z,40.9610
2023-04-10T10:14:01.435Z,42.6895
2023-04-10T10:15:04.434Z,41.8747
2023-04-10T10:16:07.384Z,41.3912
2023-04-10T10:17:10.299Z,41.5552
2023-04-10T10:18:13.247Z,43.5576
2023-04-10T10:19:16.218Z,44.0657
2023-04-10T10:20:19.145Z,44.1987
2023-04-10T10:21:22.097Z,46.0453
2023-04-10T10:22:25.029Z,46.5635
2023-04-10T10:23:28.065Z,45.1142
2023-04-10T10:24:31.100Z,44.7142
2023-04-10T10:25:33.907Z,45.1401
2023-04-10T10:26:37.000Z,46.6494
2023-04-10T10:27:39.821Z,46.8167
2023-04-10T10:28:42.697Z,45.7197
2023-04-10T10:29:45.684Z,44.4423
2023-04-10T10:30:48.594Z,44.9625
2023-04-10T10:31:51.679Z,44.9575
2023-04-10T10:32:54.511Z,42.7754
2023-04-10T10:33:57.466Z,42.3614
2023-04-10T10:35:00.399Z,40.3877
2023-04-10T10:36:03.469Z,41.1785
2023-04-10T10:37:06.496Z,41.5205
2023-04-10T10:38:09.245Z,41.6179
2023-04-10T10:39:12.183Z,42.4265
2023-04-10T10:40:15.146Z,41.5760
2023-04-10T10:41:18.082Z,40.2304
2023-04-10T10:42:21.029Z,39.1888
2023-04-10T10:43:23.991Z,39.2444
2023-04-10T10:44:26.943Z,39.4199
2023-04-10T10:45:29.950Z,39.0961
2023-04-10T10:46:32.819Z,38.9402
2023-04-10T10:47:35.772Z,40.3952
2023-04-10T10:48:38.840Z,39.3061
2023-04-10T10:49:41.656Z,38.9982
2023-04-10T10:50:44.630Z,38.9017
2023-04-10T10:51:47.543Z,39.5206
2023-04-10T10:52:50.514Z,38.7932
2023-04-10T10:53:53.514Z,38.6809
2023-04-10T10:54:59.686Z,40.1359
2023-04-10T10:55:59.444Z,40.6193
2023-04-10T10:57:02.296Z,39.2759
2023-04-10T10:58:05.245Z,38.9003
2023-04-10T10:59:08.192Z,38.5222
2023-04-10T11:00:11.157Z,38.9468
2023-04-10T11:01:14.176Z,39.7181
2023-04-10T11:02:17.202Z,38.8321
2023-04-10T11:03:20.118Z,38.5490
2023-04-10T11:04:22.947Z,38.7803
2023-04-10T11:05:25.885Z,39.6397
2023-04-10T11:06:28.870Z,39.5895
2023-04-10T11:07:31.790Z,39.7587
2023-04-10T11:08:34.739Z,40.3842
2023-04-10T11:09:37.864Z,39.8968
2023-04-10T11:10:40.668Z,39.7436
2023-04-10T11:11:43.668Z,40.9481
2023-04-10T11:12:46.553Z,39.7597
2023-04-10T11:13:49.490Z,39.2624
2023-04-10T11:14:52.470Z,40.8137
2023-04-10T11:15:55.379Z,40.8519
2023-04-10T11:16:58.522Z,39.6199
2023-04-10T11:18:01.298Z,37.8953
2023-04-10T11:19:14.050Z,37.4791
2023-04-10T11:20:07.270Z,38.6222
2023-04-10T11:21:10.166Z,37.1594
2023-04-10T11:22:13.276Z,36.8422
2023-04-10T11:23:16.042Z,37.5015
2023-04-10T11:24:19.155Z,37.4190
2023-04-10T11:25:21.957Z,37.5660
2023-04-10T11:26:24.895Z,37.3109
2023-04-10T11:27:27.871Z,36.8049
2023-04-10T11:28:30.820Z,37.2504
2023-04-10T11:29:33.762Z,37.9335
2023-04-10T11:30:36.986Z,38.2713
2023-04-10T11:31:39.969Z,38.1392
2023-04-10T11:32:42.646Z,36.8100
2023-04-10T11:33:45.588Z,37.4350
2023-04-10T11:34:48.547Z,37.3533
2023-04-10T11:35:51.560Z,37.6310
2023-04-10T11:36:54.435Z,36.9673
2023-04-10T11:37:57.409Z,35.5661
2023-04-10T11:39:00.444Z,36.9917
2023-04-10T11:40:03.306Z,37.2145
2023-04-10T11:41:06.215Z,36.5236
2023-04-10T11:42:09.168Z,36.6515
2023-04-10T11:43:12.202Z,36.4763
2023-04-10T11:44:15.168Z,36.2225
2023-04-10T11:45:18.089Z,36.9324
2023-04-10T11:46:21.149Z,35.6806
2023-04-10T11:47:24.008Z,37.0501
2023-04-10T11:48:26.924Z,38.5804
2023-04-10T11:49:29.945Z,39.4278
2023-04-10T11:50:32.832Z,38.8970
2023-04-10T11:51:35.778Z,39.1949
2023-04-10T11:52:38.732Z,37.8681
2023-04-10T11:53:41.722Z,37.3697
2023-04-10T11:54:44.618Z,36.2423
2023-04-10T11:55:47.556Z,38.3024
2023-04-10T11:56:50.515Z,39.1373
2023-04-10T11:57:53.460Z,37.3517
2023-04-10T11:58:56.763Z,37.4316
2023-04-10T11:59:59.369Z,37.2206
2023-04-10T12:01:02.408Z,37.2868
2023-04-10T12:02:05.374Z,37.7599
2023-04-10T12:03:08.404Z,38.9992
2023-04-10T12:04:11.287Z,39.4835
2023-04-10T12:05:14.145Z,37.5088
2023-04-10T12:06:17.068Z,36.0431
2023-04-10T12:07:20.078Z,36.6104
2023-04-10T12:08:23.539Z,36.7312
2023-04-10T12:09:25.914Z,35.9653
2023-04-10T12:10:28.866Z,35.8585
2023-04-10T12:11:31.863Z,35.4366
2023-04-10T12:12:34.766Z,35.5784
2023-04-10T12:13:37.717Z,36.4718
2023-04-10T12:14:40.683Z,37.1733
2023-04-10T12:15:43.635Z,35.7875
2023-04-10T12:16:46.560Z,37.2933
2023-04-10T12:17:49.576Z,37.1876
2023-04-10T12:18:53.202Z,35.7794
2023-04-10T12:19:55.445Z,35.2494
2023-04-10T12:20:58.345Z,34.2047
2023-04-10T12:22:01.324Z,35.6819
2023-04-10T12:23:04.275Z,34.7218
2023-04-10T12:24:07.219Z,35.0636
2023-04-10T12:25:10.151Z,35.6434
2023-04-10T12:26:13.144Z,36.0621
2023-04-10T12:27:16.101Z,34.5388
2023-04-10T12:28:19.009Z,34.5755
2023-04-10T12:29:22.167Z,35.4845
2023-04-10T12:30:24.915Z,36.4105
2023-04-10T12:31:27.915Z,36.7722
2023-04-10T12:32:30.855Z,38.1196
2023-04-10T12:33:33.763Z,35.0724
2023-04-10T12:34:36.731Z,35.4178
2023-04-10T12:35:39.676Z,35.1121
2023-04-10T12:36:42.685Z,36.5069
2023-04-10T12:37:45.590Z,36.0289
2023-04-10T12:38:48.545Z,36.9841
2023-04-10T12:39:51.499Z,36.0123
2023-04-10T12:40:54.420Z,37.1891